createdAt,value
2023-05-22T00:01:52.561Z,19.50
2023-05-22T00:04:22.356Z,19.40
2023-05-22T00:06:49.872Z,19.30
2023-05-22T00:09:16.577Z,19.30
2023-05-22T00:11:43.341Z,19.40
2023-05-22T00:14:10.301Z,19.30
2023-05-22T00:16:37.031Z,19.30
2023-05-22T00:19:04.345Z,19.50
2023-05-22T00:21:34.918Z,19.40
2023-05-22T00:24:02.158Z,19.50
2023-05-22T00:26:28.826Z,19.40
2023-05-22T00:28:55.564Z,19.40
2023-05-22T00:31:22.348Z,19.50
2023-05-22T00:33:49.085Z,19.50
2023-05-22T00:36:15.881Z,19.50
2023-05-22T00:38:42.489Z,19.40
2023-05-22T00:41:09.185Z,19.40
2023-05-22T00:43:38.986Z,19.30
2023-05-22T00:46:07.569Z,19.30
2023-05-22T00:48:34.350Z,19.30
2023-05-22T00:51:01.158Z,19.20
2023-05-22T00:53:29.666Z,19.20
2023-05-22T00:55:58.418Z,19.20
2023-05-22T00:58:27.086Z,19.30
2023-05-22T01:00:55.240Z,19.20
2023-05-22T01:03:26.332Z,19.20
2023-05-22T01:05:53.971Z,19.20
2023-05-22T01:08:21.322Z,19.10
2023-05-22T01:10:52.743Z,19.10
2023-05-22T01:13:39.826Z,19.20
2023-05-22T01:16:21.892Z,19.10
2023-05-22T01:19:19.160Z,19.00
2023-05-22T01:22:36.514Z,19.00
2023-05-22T01:25:26.488Z,19.10
2023-05-22T01:28:24.678Z,18.90
2023-05-22T01:30:59.859Z,18.80
2023-05-22T01:33:28.670Z,18.90
2023-05-22T01:35:59.740Z,18.90
2023-05-22T01:38:27.663Z,18.80
2023-05-22T01:40:54.738Z,18.90
2023-05-22T01:43:21.505Z,18.90
2023-05-22T01:45:48.330Z,18.80
2023-05-22T01:48:15.013Z,18.80
2023-05-22T01:50:42.166Z,18.80
2023-05-22T01:53:48.296Z,18.80
2023-05-22T01:56:20.972Z,18.70
2023-05-22T01:59:04.582Z,18.70
2023-05-22T02:01:34.590Z,18.50
2023-05-22T02:04:03.376Z,18.60
2023-05-22T02:06:32.794Z,18.70
2023-05-22T02:09:02.086Z,18.60
2023-05-22T02:11:31.543Z,18.60
2023-05-22T02:13:58.437Z,18.70
2023-05-22T02:16:25.288Z,18.60
2023-05-22T02:18:58.224Z,18.70
2023-05-22T02:21:24.928Z,18.60
2023-05-22T02:23:51.650Z,18.60
2023-05-22T02:26:18.297Z,18.50
2023-05-22T02:28:44.916Z,18.50
2023-05-22T02:31:11.543Z,18.50
2023-05-22T02:33:38.222Z,18.50
2023-05-22T02:36:05.732Z,18.40
2023-05-22T02:38:32.405Z,18.40
2023-05-22T02:40:59.054Z,18.30
2023-05-22T02:43:25.705Z,18.30
2023-05-22T02:45:52.415Z,18.20
2023-05-22T02:48:19.254Z,18.00
2023-05-22T02:50:48.352Z,18.10
2023-05-22T02:53:15.666Z,17.90
2023-05-22T02:55:42.326Z,18.00
2023-05-22T02:58:11.292Z,18.00
2023-05-22T03:00:38.706Z,18.10
2023-05-22T03:03:06.856Z,18.00
2023-05-22T03:05:33.797Z,18.00
2023-05-22T03:08:00.462Z,18.00
2023-05-22T03:10:27.229Z,18.00
2023-05-22T03:12:54.312Z,17.90
2023-05-22T03:15:21.513Z,17.80
2023-05-22T03:17:48.151Z,17.70
2023-05-22T03:20:16.842Z,17.80
2023-05-22T03:22:44.779Z,17.80
2023-05-22T03:25:11.617Z,17.60
2023-05-22T03:27:40.950Z,17.50
2023-05-22T03:30:08.374Z,17.40
2023-05-22T03:32:38.304Z,17.40
2023-05-22T03:35:06.077Z,17.40
2023-05-22T03:37:32.701Z,17.30
2023-05-22T03:39:59.860Z,17.30
2023-05-22T03:42:26.520Z,17.30
2023-05-22T03:44:53.414Z,17.20
2023-05-22T03:47:20.092Z,17.20
2023-05-22T03:49:46.936Z,17.10
2023-05-22T03:52:13.603Z,17.20
2023-05-22T03:54:40.258Z,17.20
2023-05-22T03:57:06.998Z,17.20
2023-05-22T03:59:33.673Z,17.30
2023-05-22T04:02:01.235Z,17.30
2023-05-22T04:04:28.495Z,17.30
2023-05-22T04:06:57.953Z,17.20
2023-05-22T04:09:27.680Z,17.20
2023-05-22T04:11:54.349Z,17.10
2023-05-22T04:14:20.991Z,17.00
2023-05-22T04:16:50.308Z,17.00
2023-05-22T04:19:18.253Z,16.80
2023-05-22T04:21:45.171Z,16.80
2023-05-22T04:24:11.803Z,16.80
2023-05-22T04:26:41.690Z,16.70
2023-05-22T04:29:10.421Z,16.70
2023-05-22T04:31:37.406Z,16.80
2023-05-22T04:34:05.227Z,16.90
2023-05-22T04:36:31.909Z,16.80
2023-05-22T04:39:00.333Z,16.70
2023-05-22T04:41:27.911Z,16.70
2023-05-22T04:43:54.781Z,16.80
2023-05-22T04:46:21.560Z,16.80
2023-05-22T04:48:48.431Z,16.70
2023-05-22T04:51:15.087Z,16.60
2023-05-22T04:53:41.806Z,16.60
2023-05-22T04:56:08.547Z,16.60
2023-05-22T04:58:37.756Z,16.70
2023-05-22T05:01:04.736Z,16.70
2023-05-22T05:03:31.463Z,16.70
2023-05-22T05:05:59.412Z,16.80
2023-05-22T05:08:26.200Z,16.70
2023-05-22T05:10:52.925Z,16.70
2023-05-22T05:13:19.550Z,16.60
2023-05-22T05:15:46.190Z,16.60
2023-05-22T05:18:12.996Z,16.60
2023-05-22T05:20:39.862Z,16.60
2023-05-22T05:23:06.734Z,16.70
2023-05-22T05:25:33.390Z,16.50
2023-05-22T05:28:00.057Z,16.60
2023-05-22T05:30:27.590Z,16.60
2023-05-22T05:32:54.232Z,16.50
2023-05-22T05:35:21.012Z,16.50
2023-05-22T05:37:47.632Z,16.50
2023-05-22T05:40:14.418Z,16.50
2023-05-22T05:42:41.101Z,16.40
2023-05-22T05:45:08.280Z,16.30
2023-05-22T05:50:01.512Z,16.50
2023-05-22T05:52:32.386Z,16.50
2023-05-22T05:55:02.300Z,16.40
2023-05-22T05:57:31.135Z,16.40
2023-05-22T05:59:57.751Z,16.50
2023-05-22T06:02:24.532Z,16.40
2023-05-22T06:04:51.317Z,16.30
2023-05-22T06:07:18.017Z,16.20
2023-05-22T06:09:44.759Z,16.30
2023-05-22T06:12:12.759Z,16.30
2023-05-22T06:14:42.728Z,16.20
2023-05-22T06:17:09.418Z,16.10
2023-05-22T06:19:36.496Z,16.00
2023-05-22T06:22:03.472Z,16.10
2023-05-22T06:24:31.837Z,16.20
2023-05-22T06:26:58.588Z,16.20
2023-05-22T06:29:25.416Z,16.20
2023-05-22T06:31:52.156Z,16.10
2023-05-22T06:34:18.896Z,16.30
2023-05-22T06:36:45.999Z,16.10
2023-05-22T06:39:12.670Z,16.20
2023-05-22T06:41:39.317Z,16.20
2023-05-22T06:44:06.453Z,16.20
2023-05-22T06:46:33.165Z,16.40
2023-05-22T06:48:59.861Z,16.40
2023-05-22T06:51:26.639Z,16.50
2023-05-22T06:53:53.276Z,16.70
2023-05-22T06:56:19.941Z,16.70
2023-05-22T06:58:46.543Z,16.80
2023-05-22T07:01:13.231Z,16.90
2023-05-22T07:03:39.944Z,16.70
2023-05-22T07:06:07.581Z,16.60
2023-05-22T07:08:34.713Z,16.80
2023-05-22T07:11:02.005Z,16.80
2023-05-22T07:13:31.977Z,16.80
2023-05-22T07:15:58.646Z,16.90
2023-05-22T07:18:25.593Z,17.10
2023-05-22T07:20:52.214Z,16.90
2023-05-22T07:23:18.903Z,16.90
2023-05-22T07:25:45.565Z,16.80
2023-05-22T07:28:12.207Z,16.70
2023-05-22T07:30:39.450Z,16.70
2023-05-22T07:33:06.452Z,16.80
2023-05-22T07:35:33.308Z,16.90
2023-05-22T07:37:59.922Z,16.80
2023-05-22T07:40:27.640Z,16.90
2023-05-22T07:42:54.330Z,17.00
2023-05-22T07:45:21.186Z,17.10
2023-05-22T07:47:47.912Z,17.10
2023-05-22T07:50:14.544Z,17.10
2023-05-22T07:52:41.330Z,16.80
2023-05-22T07:55:08.558Z,16.90
2023-05-22T07:57:36.134Z,16.90
2023-05-22T08:00:09.943Z,17.00
2023-05-22T08:02:36.756Z,16.80
2023-05-22T08:05:04.458Z,16.70
2023-05-22T08:07:32.869Z,16.80
2023-05-22T08:10:02.291Z,16.70
2023-05-22T08:12:28.933Z,16.50
2023-05-22T08:14:55.731Z,16.60
2023-05-22T08:17:22.518Z,16.60
2023-05-22T08:19:49.416Z,16.70
2023-05-22T08:22:16.461Z,16.60
2023-05-22T08:24:43.113Z,16.60
2023-05-22T08:27:09.730Z,16.50
2023-05-22T08:29:36.475Z,16.40
2023-05-22T08:32:03.319Z,16.50
2023-05-22T08:34:30.057Z,16.40
2023-05-22T08:36:56.733Z,16.50
2023-05-22T08:39:23.478Z,16.40
2023-05-22T08:41:50.626Z,16.50
2023-05-22T08:44:17.534Z,16.60
2023-05-22T08:46:45.976Z,16.60
2023-05-22T08:49:13.347Z,16.40
2023-05-22T08:51:42.296Z,16.50
2023-05-22T08:54:09.804Z,16.60
2023-05-22T08:56:39.782Z,16.60
2023-05-22T08:59:12.780Z,16.60
2023-05-22T09:01:39.856Z,16.40
2023-05-22T09:04:06.721Z,16.60
2023-05-22T09:06:33.581Z,16.50
2023-05-22T09:09:01.339Z,16.40
2023-05-22T09:11:27.964Z,16.40
2023-05-22T09:14:08.387Z,16.30
2023-05-22T09:16:47.650Z,16.50
2023-05-22T09:19:14.935Z,16.60
2023-05-22T09:21:43.609Z,16.70
2023-05-22T09:24:10.934Z,16.70
2023-05-22T09:26:41.192Z,16.90
2023-05-22T09:29:08.165Z,17.00
2023-05-22T09:31:42.633Z,16.90
2023-05-22T09:34:11.206Z,17.00
2023-05-22T09:36:37.895Z,16.80
2023-05-22T09:39:04.863Z,16.90
2023-05-22T09:41:37.983Z,16.90
2023-05-22T09:44:26.746Z,17.00
2023-05-22T09:46:54.862Z,17.00
2023-05-22T09:49:21.543Z,17.10
2023-05-22T09:51:52.248Z,17.20
2023-05-22T09:54:20.253Z,17.40
2023-05-22T09:56:50.729Z,17.60
2023-05-22T09:59:22.346Z,17.50
2023-05-22T10:01:50.417Z,17.40
2023-05-22T10:04:18.756Z,17.20
2023-05-22T10:06:52.698Z,17.50
2023-05-22T10:09:24.107Z,17.60
2023-05-22T10:11:54.940Z,17.70
2023-05-22T10:14:23.577Z,17.70
2023-05-22T10:16:51.275Z,17.90
2023-05-22T10:19:18.491Z,17.90
2023-05-22T10:21:47.228Z,18.00
2023-05-22T10:24:14.550Z,18.20
2023-05-22T10:26:42.612Z,18.10
2023-05-22T10:29:17.907Z,18.30
2023-05-22T10:31:52.924Z,18.30
2023-05-22T10:34:51.827Z,18.40
2023-05-22T10:37:43.233Z,18.60
2023-05-22T10:40:12.648Z,18.40
2023-05-22T10:42:39.510Z,18.50
2023-05-22T10:45:10.724Z,18.80
2023-05-22T10:47:37.740Z,18.80
2023-05-22T10:50:11.534Z,18.80
2023-05-22T10:52:39.867Z,18.80
2023-05-22T10:55:08.904Z,18.80
2023-05-22T10:57:38.190Z,18.90
2023-05-22T11:00:09.894Z,18.90
2023-05-22T11:02:45.013Z,19.10
2023-05-22T11:05:34.344Z,19.20
2023-05-22T11:08:10.870Z,19.30
2023-05-22T11:10:54.469Z,19.30
2023-05-22T11:13:21.150Z,19.40
2023-05-22T11:15:48.394Z,19.50
2023-05-22T11:18:16.720Z,19.40
2023-05-22T11:20:44.298Z,19.40
2023-05-22T11:23:11.459Z,19.60
2023-05-22T11:25:40.950Z,19.70
2023-05-22T11:28:07.960Z,19.90
2023-05-22T11:30:34.974Z,20.00
2023-05-22T11:33:02.385Z,20.10
2023-05-22T11:35:29.254Z,20.30
2023-05-22T11:37:56.281Z,20.30
2023-05-22T11:40:25.567Z,20.30
2023-05-22T11:42:56.131Z,20.00
2023-05-22T11:45:23.482Z,20.20
2023-05-22T11:47:50.551Z,20.50
2023-05-22T11:50:29.316Z,20.70
2023-05-22T11:53:04.922Z,21.00
2023-05-22T11:55:33.346Z,20.70
2023-05-22T11:58:02.358Z,20.70
2023-05-22T12:00:30.130Z,20.80
2023-05-22T12:02:56.968Z,20.90
2023-05-22T12:05:23.701Z,20.90
2023-05-22T12:07:50.416Z,20.80
2023-05-22T12:10:17.076Z,21.00
2023-05-22T12:12:44.377Z,21.00
2023-05-22T12:15:11.308Z,21.00
2023-05-22T12:17:38.568Z,21.30
2023-05-22T12:20:07.030Z,21.60
2023-05-22T12:22:33.722Z,21.70
2023-05-22T12:25:00.412Z,21.80
2023-05-22T12:27:33.195Z,21.90
2023-05-22T12:30:08.233Z,21.70
2023-05-22T12:32:34.906Z,21.90
2023-05-22T12:35:01.567Z,22.10
2023-05-22T12:37:28.520Z,22.00
2023-05-22T12:39:56.243Z,22.00
2023-05-22T12:42:23.540Z,22.30
2023-05-22T12:44:52.924Z,22.30
2023-05-22T12:47:19.755Z,22.40
2023-05-22T12:49:46.444Z,22.50
2023-05-22T12:52:13.514Z,22.50
2023-05-22T12:54:41.282Z,22.50
2023-05-22T12:57:08.165Z,22.80
2023-05-22T12:59:36.950Z,22.70
2023-05-22T13:02:05.469Z,22.80
2023-05-22T13:04:32.457Z,23.00
2023-05-22T13:06:59.406Z,22.90
2023-05-22T13:09:26.340Z,23.20
2023-05-22T13:11:53.149Z,23.40
2023-05-22T13:14:21.220Z,23.50
2023-05-22T13:16:47.897Z,23.60
2023-05-22T13:19:14.626Z,23.80
2023-05-22T13:21:42.023Z,23.90
2023-05-22T13:24:08.645Z,24.20
2023-05-22T13:26:35.306Z,23.90
2023-05-22T13:29:02.032Z,23.70
2023-05-22T13:31:28.818Z,23.60
2023-05-22T13:33:55.839Z,23.80
2023-05-22T13:36:22.519Z,24.10
2023-05-22T13:38:49.227Z,24.30
2023-05-22T13:41:17.577Z,24.00
2023-05-22T13:43:44.334Z,23.80
2023-05-22T13:46:11.012Z,24.20
2023-05-22T13:48:37.692Z,24.60
2023-05-22T13:51:04.689Z,24.80
2023-05-22T13:53:31.318Z,24.50
2023-05-22T13:55:57.988Z,24.50
2023-05-22T13:58:24.656Z,24.30
2023-05-22T14:00:51.444Z,24.40
2023-05-22T14:03:18.449Z,24.50
2023-05-22T14:05:45.493Z,24.70
2023-05-22T14:08:12.632Z,25.20
2023-05-22T14:10:39.641Z,24.80
2023-05-22T14:13:06.413Z,25.20
2023-05-22T14:15:33.215Z,25.20
2023-05-22T14:18:00.859Z,24.80
2023-05-22T14:20:27.585Z,24.80
2023-05-22T14:22:57.613Z,25.10
2023-05-22T14:25:25.815Z,25.20
2023-05-22T14:27:52.499Z,25.40
2023-05-22T14:30:19.334Z,25.00
2023-05-22T14:32:46.701Z,24.90
2023-05-22T14:35:13.520Z,25.20
2023-05-22T14:37:40.313Z,25.20
2023-05-22T14:40:07.792Z,25.10
2023-05-22T14:42:34.936Z,25.00
2023-05-22T14:45:01.593Z,25.00
2023-05-22T14:47:28.242Z,25.10
2023-05-22T14:49:57.571Z,25.50
2023-05-22T14:52:29.717Z,25.60
2023-05-22T14:54:56.363Z,25.80
2023-05-22T14:57:23.188Z,25.70
2023-05-22T14:59:49.837Z,25.40
2023-05-22T15:02:16.623Z,25.20
2023-05-22T15:04:44.647Z,25.80
2023-05-22T15:07:11.908Z,25.90
2023-05-22T15:09:38.839Z,25.80
2023-05-22T15:12:05.834Z,25.50
2023-05-22T15:14:32.476Z,25.70
2023-05-22T15:17:01.953Z,25.60
2023-05-22T15:19:28.622Z,25.50
2023-05-22T15:21:57.293Z,25.70
2023-05-22T15:24:29.362Z,25.60
2023-05-22T15:26:57.747Z,25.90
2023-05-22T15:29:24.462Z,25.90
2023-05-22T15:31:51.212Z,25.60
2023-05-22T15:34:17.921Z,25.50
2023-05-22T15:36:44.613Z,25.40
2023-05-22T15:39:11.258Z,25.30
2023-05-22T15:41:37.892Z,25.20
2023-05-22T15:44:04.613Z,25.20
2023-05-22T15:46:31.432Z,25.10
2023-05-22T15:48:58.128Z,25.00
2023-05-22T15:51:24.740Z,25.30
2023-05-22T15:53:51.372Z,25.10
2023-05-22T15:56:18.068Z,25.10
2023-05-22T15:58:44.696Z,25.00
2023-05-22T16:01:12.200Z,25.20
2023-05-22T16:03:39.083Z,25.40
2023-05-22T16:06:06.845Z,25.60
2023-05-22T16:08:33.648Z,25.10
2023-05-22T16:11:01.582Z,24.70
2023-05-22T16:13:28.493Z,24.50
2023-05-22T16:15:55.145Z,24.60
2023-05-22T16:18:23.667Z,24.70
2023-05-22T16:20:51.172Z,24.70
2023-05-22T16:23:17.868Z,24.60
2023-05-22T16:25:44.487Z,24.70
2023-05-22T16:28:12.232Z,24.70
2023-05-22T16:30:40.010Z,24.60
2023-05-22T16:33:07.204Z,24.50
2023-05-22T16:35:34.012Z,24.30
2023-05-22T16:38:01.126Z,24.20
2023-05-22T16:40:27.863Z,24.30
2023-05-22T16:42:54.502Z,24.20
2023-05-22T16:45:22.101Z,24.00
2023-05-22T16:47:48.909Z,23.80
2023-05-22T16:50:15.724Z,23.80
2023-05-22T16:52:42.458Z,23.30
2023-05-22T16:55:09.283Z,23.00
2023-05-22T16:57:35.935Z,22.80
2023-05-22T17:00:03.611Z,22.70
2023-05-22T17:02:30.814Z,22.60
2023-05-22T17:04:57.574Z,22.40
2023-05-22T17:07:25.281Z,22.30
2023-05-22T17:09:51.933Z,22.30
2023-05-22T17:12:18.572Z,22.20
2023-05-22T17:14:45.266Z,22.00
2023-05-22T17:17:11.911Z,21.80
2023-05-22T17:19:38.624Z,21.70
2023-05-22T17:22:05.696Z,21.60
2023-05-22T17:24:32.338Z,21.70
2023-05-22T17:26:59.057Z,21.50
2023-05-22T17:29:27.280Z,21.60
2023-05-22T17:31:54.817Z,21.60
2023-05-22T17:34:22.098Z,21.60
2023-05-22T17:36:48.721Z,21.60
2023-05-22T17:39:15.557Z,21.90
2023-05-22T17:41:42.176Z,21.70
2023-05-22T17:44:08.858Z,21.60
2023-05-22T17:46:35.663Z,21.60
2023-05-22T17:49:02.653Z,21.60
2023-05-22T17:51:29.295Z,21.60
2023-05-22T17:53:58.834Z,21.60
2023-05-22T17:56:26.383Z,21.60
2023-05-22T17:58:53.108Z,21.80
2023-05-22T18:01:19.916Z,21.90
2023-05-22T18:03:46.921Z,21.70
2023-05-22T18:06:14.000Z,21.70
2023-05-22T18:08:40.787Z,21.80
2023-05-22T18:11:07.425Z,21.80
2023-05-22T18:13:34.205Z,21.80
2023-05-22T18:16:02.556Z,21.80
2023-05-22T18:18:29.309Z,21.80
2023-05-22T18:20:56.199Z,21.80
2023-05-22T18:23:22.925Z,21.80
2023-05-22T18:25:49.780Z,21.70
2023-05-22T18:28:16.444Z,21.70
2023-05-22T18:30:44.794Z,21.60
2023-05-22T18:33:12.086Z,21.80
2023-05-22T18:35:38.796Z,21.90
2023-05-22T18:38:06.283Z,21.80
2023-05-22T18:40:32.933Z,21.80
2023-05-22T18:42:59.644Z,21.70
2023-05-22T18:45:26.240Z,21.60
2023-05-22T18:47:53.258Z,21.60
2023-05-22T18:50:22.115Z,21.40
2023-05-22T18:52:50.028Z,21.40
2023-05-22T18:55:16.652Z,21.30
2023-05-22T18:57:43.327Z,21.20
2023-05-22T19:00:10.601Z,21.30
2023-05-22T19:02:37.379Z,21.10
2023-05-22T19:05:04.626Z,21.10
2023-05-22T19:07:31.502Z,21.00
2023-05-22T19:09:58.154Z,21.10
2023-05-22T19:12:27.624Z,21.00
2023-05-22T19:14:54.549Z,21.10
2023-05-22T19:17:21.197Z,20.80
2023-05-22T19:19:47.852Z,20.80
2023-05-22T19:22:17.664Z,20.80
2023-05-22T19:24:44.734Z,20.80
2023-05-22T19:27:11.429Z,20.80
2023-05-22T19:29:38.068Z,20.70
2023-05-22T19:32:05.142Z,20.50
2023-05-22T19:34:31.874Z,20.50
2023-05-22T19:36:58.517Z,20.40
2023-05-22T19:39:25.434Z,20.40
2023-05-22T19:41:52.630Z,20.40
2023-05-22T19:44:19.393Z,20.40
2023-05-22T19:46:46.572Z,20.40
2023-05-22T19:49:13.482Z,20.40
2023-05-22T19:51:40.783Z,20.40
2023-05-22T19:54:07.452Z,20.30
2023-05-22T19:56:35.492Z,20.30
2023-05-22T19:59:02.182Z,20.20
2023-05-22T20:01:28.963Z,20.20
2023-05-22T20:03:55.953Z,20.10
2023-05-22T20:06:22.959Z,20.10
2023-05-22T20:08:49.686Z,20.00
2023-05-22T20:11:16.326Z,20.00
2023-05-22T20:13:42.930Z,19.80
2023-05-22T20:16:12.449Z,19.70
2023-05-22T20:18:40.870Z,19.70
2023-05-22T20:21:07.864Z,19.60
2023-05-22T20:23:34.531Z,19.70
2023-05-22T20:26:01.278Z,19.70
2023-05-22T20:28:27.959Z,19.60
2023-05-22T20:30:54.646Z,19.60
2023-05-22T20:33:21.362Z,19.70
2023-05-22T20:35:49.258Z,19.60
2023-05-22T20:38:18.865Z,19.50
2023-05-22T20:40:47.489Z,19.40
2023-05-22T20:43:14.589Z,19.40
2023-05-22T20:45:45.567Z,19.30
2023-05-22T20:48:13.351Z,19.40
2023-05-22T20:50:41.952Z,19.40
2023-05-22T20:53:08.651Z,19.10
2023-05-22T20:55:35.648Z,19.20
2023-05-22T20:58:02.392Z,19.10
2023-05-22T21:00:29.790Z,19.00
2023-05-22T21:02:58.264Z,19.00
2023-05-22T21:05:25.592Z,19.10
2023-05-22T21:07:52.233Z,19.10
2023-05-22T21:10:19.013Z,19.10
2023-05-22T21:12:45.880Z,19.00
2023-05-22T21:15:12.500Z,19.00
2023-05-22T21:17:39.437Z,18.90
2023-05-22T21:20:06.721Z,18.90
2023-05-22T21:22:33.464Z,18.80
2023-05-22T21:25:00.292Z,18.70
2023-05-22T21:27:26.912Z,18.70
2023-05-22T21:29:53.558Z,18.70
2023-05-22T21:32:20.285Z,18.50
2023-05-22T21:34:47.040Z,18.50
2023-05-22T21:37:13.712Z,18.50
2023-05-22T21:39:40.534Z,18.40
2023-05-22T21:42:07.492Z,18.50
2023-05-22T21:44:34.154Z,18.40
2023-05-22T21:47:01.029Z,18.20
2023-05-22T21:49:27.765Z,18.20
2023-05-22T21:51:54.480Z,18.10
2023-05-22T21:54:21.167Z,18.20
2023-05-22T21:56:47.806Z,18.20
2023-05-22T21:59:14.520Z,18.10
2023-05-22T22:01:41.381Z,18.10
2023-05-22T22:04:08.242Z,18.00
2023-05-22T22:06:36.614Z,17.90
2023-05-22T22:09:03.525Z,17.90
2023-05-22T22:11:30.300Z,17.70
2023-05-22T22:13:56.973Z,17.80
2023-05-22T22:16:24.276Z,17.60
2023-05-22T22:18:51.230Z,17.60
2023-05-22T22:21:17.992Z,17.60
2023-05-22T22:23:44.627Z,17.70
2023-05-22T22:26:12.597Z,17.70
2023-05-22T22:28:39.304Z,17.70
2023-05-22T22:31:05.973Z,17.50
2023-05-22T22:33:32.860Z,17.50
2023-05-22T22:35:59.993Z,17.30
2023-05-22T22:38:26.897Z,17.30
2023-05-22T22:40:53.521Z,17.30
2023-05-22T22:43:20.233Z,17.20
2023-05-22T22:45:46.911Z,17.30
2023-05-22T22:48:13.602Z,17.20
2023-05-22T22:50:41.127Z,17.20
2023-05-22T22:53:07.993Z,17.20
2023-05-22T22:55:34.797Z,17.20
2023-05-22T22:58:01.817Z,17.00
2023-05-22T23:00:28.500Z,17.00
2023-05-22T23:02:55.161Z,16.90
2023-05-22T23:05:22.024Z,17.00
2023-05-22T23:07:48.987Z,17.00
2023-05-22T23:10:16.030Z,17.00
2023-05-22T23:12:42.815Z,17.10
2023-05-22T23:15:11.231Z,17.10
2023-05-22T23:17:38.125Z,17.10
2023-05-22T23:20:05.841Z,17.10
2023-05-22T23:22:32.652Z,17.00
2023-05-22T23:24:59.274Z,16.90
2023-05-22T23:27:26.050Z,16.90
2023-05-22T23:29:52.844Z,16.90
2023-05-22T23:32:19.462Z,16.90
2023-05-22T23:34:46.128Z,16.90
2023-05-22T23:37:12.756Z,16.90
2023-05-22T23:39:39.400Z,16.90
2023-05-22T23:42:09.699Z,16.90
2023-05-22T23:44:39.353Z,16.90
2023-05-22T23:47:06.727Z,16.90
2023-05-22T23:49:33.785Z,16.90
2023-05-22T23:52:00.630Z,16.90
2023-05-22T23:54:27.433Z,16.80
2023-05-22T23:56:54.046Z,16.90
2023-05-22T23:59:21.831Z,16.90
